Time;durP1;ratioP1;P1;durP2;ratioP2;P2;SDS_P1;SDS_P2;PMS_P1;PMS_P2;Temp;Humidity;BMP_temperature;BMP_pressure;BME280_temperature;BME280_humidity;BME280_pressure;Samples;Min_cycle;Max_cycle;Signal;HPM_P1;HPM_P2
2022/05/02 00:00:13;;;;;;;416.97;400.00;;;6.70;99.90;;;;;;4940045;29;22339;-83
2022/05/02 00:02:40;;;;;;;456.37;436.93;;;6.60;99.90;;;;;;4958337;28;20460;-83
2022/05/02 00:05:08;;;;;;;443.77;425.77;;;6.50;99.90;;;;;;4955791;29;20452;-82
2022/05/02 00:07:36;;;;;;;445.17;426.57;;;6.40;99.90;;;;;;4938711;29;20841;-82
2022/05/02 00:10:05;;;;;;;483.00;462.13;;;6.50;99.90;;;;;;4937650;29;20527;-83
2022/05/02 00:12:32;;;;;;;495.50;473.50;;;6.40;99.90;;;;;;4959129;28;20460;-83
2022/05/02 00:15:00;;;;;;;491.47;470.07;;;6.50;99.90;;;;;;4957554;29;20510;-82
2022/05/02 00:20:08;;;;;;;560.57;534.57;;;6.20;99.90;;;;;;4956368;29;20463;-83
2022/05/02 00:22:35;;;;;;;592.20;563.97;;;6.20;99.90;;;;;;4957847;29;20456;-82
2022/05/02 00:25:01;;;;;;;589.30;561.60;;;6.30;99.90;;;;;;4949814;29;20457;-82
2022/05/02 00:27:28;;;;;;;614.10;585.50;;;6.30;99.90;;;;;;4938823;29;20950;-82
2022/05/02 00:29:55;;;;;;;608.87;579.87;;;6.20;99.90;;;;;;4944821;29;20472;-82
2022/05/02 00:32:23;;;;;;;581.77;554.93;;;6.10;99.90;;;;;;4958203;29;20452;-83
2022/05/02 00:34:50;;;;;;;550.20;526.17;;;6.20;99.90;;;;;;4953724;28;20472;-83
2022/05/02 00:37:18;;;;;;;531.97;508.57;;;6.30;99.90;;;;;;4942255;29;20475;-83
2022/05/02 00:39:45;;;;;;;572.13;545.50;;;6.30;99.90;;;;;;4961405;29;20492;-83
2022/05/02 00:42:11;;;;;;;589.03;561.60;;;6.30;99.90;;;;;;4978413;29;20492;-82
2022/05/02 00:44:42;;;;;;;495.67;472.97;;;6.30;99.90;;;;;;4974902;29;20488;-82
2022/05/02 00:47:15;;;;;;;587.83;559.13;;;6.10;99.90;;;;;;4953416;29;20441;-83
2022/05/02 00:49:43;;;;;;;479.77;458.20;;;6.10;99.90;;;;;;4938145;29;20472;-82
2022/05/02 00:52:10;;;;;;;516.00;492.67;;;6.00;99.90;;;;;;4938798;29;20453;-82
2022/05/02 00:54:37;;;;;;;623.50;592.00;;;5.80;99.90;;;;;;4939957;29;20457;-81
2022/05/02 00:57:07;;;;;;;615.73;584.90;;;5.80;99.90;;;;;;4956905;29;20460;-82
2022/05/02 00:59:36;;;;;;;611.33;581.53;;;5.90;99.90;;;;;;4955619;28;20484;-83
2022/05/02 01:02:03;;;;;;;565.80;539.80;;;5.80;99.90;;;;;;4925776;29;20511;-81
2022/05/02 01:04:30;;;;;;;560.10;534.07;;;5.80;99.90;;;;;;4943649;29;20486;-82
2022/05/02 01:07:11;;;;;;;540.00;514.27;;;5.70;99.90;;;;;;4956424;29;20459;-82
2022/05/02 01:09:41;;;;;;;537.13;511.50;;;5.70;99.90;;;;;;4948791;29;20484;-83
2022/05/02 01:12:10;;;;;;;581.07;552.37;;;5.70;99.90;;;;;;4940508;29;20512;-82
2022/05/02 01:14:37;;;;;;;701.07;662.97;;;5.70;99.90;;;;;;4945680;29;20452;-82
2022/05/02 01:17:08;;;;;;;752.13;707.23;;;5.70;99.90;;;;;;4955818;29;20807;-82
2022/05/02 01:19:35;;;;;;;743.37;701.20;;;5.80;99.90;;;;;;4945910;29;20484;-83
2022/05/02 01:22:05;;;;;;;734.10;692.30;;;5.80;99.90;;;;;;4945529;29;20451;-82
2022/05/02 01:24:36;;;;;;;746.93;703.07;;;5.80;99.90;;;;;;4957535;28;20475;-82
2022/05/02 01:27:04;;;;;;;738.00;695.43;;;5.90;99.90;;;;;;4940583;29;20457;-82
2022/05/02 01:29:32;;;;;;;744.90;702.30;;;6.10;99.90;;;;;;4941694;29;20488;-82
2022/05/02 01:31:59;;;;;;;721.40;681.77;;;6.00;99.90;;;;;;4960191;29;20941;-83
2022/05/02 01:34:26;;;;;;;711.97;674.77;;;6.00;99.90;;;;;;4959974;28;20979;-82
2022/05/02 01:36:53;;;;;;;706.10;669.40;;;6.00;99.90;;;;;;4960170;29;20462;-81
2022/05/02 01:39:21;;;;;;;703.47;665.97;;;6.00;99.90;;;;;;4958098;29;20534;-82
2022/05/02 01:41:49;;;;;;;724.23;684.17;;;6.00;99.90;;;;;;4959876;29;20949;-83
2022/05/02 01:44:15;;;;;;;731.97;691.97;;;5.90;99.90;;;;;;4950998;28;20997;-83
2022/05/02 01:46:43;;;;;;;719.23;679.93;;;6.00;99.90;;;;;;4940882;29;20456;-82
2022/05/02 01:49:09;;;;;;;715.87;676.80;;;6.10;99.90;;;;;;4946914;29;20949;-83
2022/05/02 01:51:36;;;;;;;704.53;666.13;;;6.20;99.90;;;;;;4959574;29;20460;-83
2022/05/02 01:54:03;;;;;;;708.80;669.67;;;6.30;99.90;;;;;;4953770;29;20460;-82
2022/05/02 01:56:31;;;;;;;666.60;632.63;;;6.40;99.90;;;;;;4940674;29;20464;-82
2022/05/02 01:58:58;;;;;;;649.70;616.37;;;6.30;99.90;;;;;;4944134;29;20459;-81
2022/05/02 02:01:25;;;;;;;630.33;598.47;;;6.40;99.90;;;;;;4956151;29;20468;-83
2022/05/02 02:03:51;;;;;;;608.40;577.70;;;6.40;99.90;;;;;;4958597;29;20483;-82
2022/05/02 02:06:17;;;;;;;549.67;525.03;;;6.50;99.90;;;;;;4940382;29;20460;-82
2022/05/02 02:08:44;;;;;;;484.93;465.00;;;6.50;99.90;;;;;;4939667;29;20464;-83
2022/05/02 02:11:11;;;;;;;453.73;434.80;;;6.70;99.90;;;;;;4958683;29;20239;-82
2022/05/02 02:13:40;;;;;;;446.00;427.50;;;6.70;99.90;;;;;;4959541;28;20466;-82
2022/05/02 02:16:09;;;;;;;445.00;425.60;;;6.80;99.90;;;;;;4941291;29;20488;-81
2022/05/02 02:18:37;;;;;;;461.00;440.97;;;6.80;99.90;;;;;;4939733;29;20457;-82
2022/05/02 02:21:05;;;;;;;477.03;456.00;;;6.70;99.90;;;;;;4956198;28;20518;-82
2022/05/02 02:23:32;;;;;;;519.87;496.67;;;6.80;99.90;;;;;;4958917;29;20452;-83
2022/05/02 02:25:59;;;;;;;571.80;545.07;;;6.80;99.90;;;;;;4958237;29;20452;-83
2022/05/02 02:28:26;;;;;;;548.90;523.47;;;6.80;99.90;;;;;;4958323;29;20452;-82
2022/05/02 02:30:54;;;;;;;562.33;535.57;;;6.70;99.90;;;;;;4944497;29;20863;-82
2022/05/02 02:33:21;;;;;;;545.90;519.03;;;6.90;99.90;;;;;;4946988;29;20553;-82
2022/05/02 02:35:48;;;;;;;552.23;525.63;;;6.90;99.90;;;;;;4958880;29;20459;-83
2022/05/02 02:38:15;;;;;;;545.13;518.70;;;6.90;99.90;;;;;;4957569;28;20456;-82
2022/05/02 02:40:42;;;;;;;586.17;557.13;;;7.00;99.90;;;;;;4958911;29;20490;-83
2022/05/02 02:43:09;;;;;;;581.57;552.00;;;7.00;99.90;;;;;;4955129;29;20807;-81
2022/05/02 02:45:36;;;;;;;564.33;536.53;;;7.00;99.90;;;;;;4939750;29;20485;-83
2022/05/02 02:48:04;;;;;;;541.57;516.07;;;7.10;99.90;;;;;;4941537;29;20464;-83
2022/05/02 02:50:31;;;;;;;541.10;515.00;;;7.00;99.90;;;;;;4957805;29;20480;-81
2022/05/02 02:52:58;;;;;;;540.57;515.03;;;7.10;99.90;;;;;;4956896;28;20518;-82
2022/05/02 02:55:25;;;;;;;560.13;533.33;;;7.00;99.90;;;;;;4939441;29;20449;-83
2022/05/02 02:57:52;;;;;;;522.73;498.13;;;7.00;99.90;;;;;;4940118;29;20456;-83
2022/05/02 03:00:19;;;;;;;521.07;497.20;;;7.10;99.90;;;;;;4950741;29;20562;-83
2022/05/02 03:02:47;;;;;;;476.53;455.43;;;7.10;99.90;;;;;;4941572;29;20475;-83
2022/05/02 03:08:00;;;;;;;503.40;480.63;;;7.00;99.90;;;;;;4950329;29;20468;-83
2022/05/02 03:10:27;;;;;;;481.70;460.40;;;7.10;99.90;;;;;;4938037;29;20472;-82
2022/05/02 03:12:54;;;;;;;513.93;490.87;;;7.10;99.90;;;;;;4937023;29;20961;-83
2022/05/02 03:15:21;;;;;;;530.07;505.33;;;7.20;99.90;;;;;;4939439;29;20507;-83
2022/05/02 03:17:48;;;;;;;573.93;547.23;;;7.00;99.90;;;;;;4937898;29;20460;-82
2022/05/02 03:20:16;;;;;;;634.13;602.00;;;6.90;99.90;;;;;;4950982;29;20477;-83
2022/05/02 03:22:43;;;;;;;627.30;595.30;;;7.00;99.90;;;;;;4956519;28;20452;-82
2022/05/02 03:25:10;;;;;;;619.93;587.73;;;7.00;99.90;;;;;;4952828;29;20495;-83
2022/05/02 03:27:37;;;;;;;620.33;588.50;;;7.00;99.90;;;;;;4938223;29;20457;-82
2022/05/02 03:30:05;;;;;;;622.10;589.90;;;7.00;99.90;;;;;;4940080;29;20584;-82
2022/05/02 03:32:32;;;;;;;565.17;537.17;;;7.00;99.90;;;;;;4937108;29;20464;-83
2022/05/02 03:34:58;;;;;;;541.73;516.27;;;7.10;99.90;;;;;;4939035;29;20457;-82
2022/05/02 03:37:27;;;;;;;529.73;504.77;;;7.10;99.90;;;;;;4940204;29;20468;-86
2022/05/02 03:39:53;;;;;;;535.97;510.27;;;7.00;99.90;;;;;;4952212;29;20479;-82
2022/05/02 03:42:20;;;;;;;533.37;508.17;;;7.10;99.90;;;;;;4952245;29;20464;-83
2022/05/02 03:44:47;;;;;;;540.43;514.30;;;7.10;99.90;;;;;;4956156;29;20487;-83
2022/05/02 03:47:13;;;;;;;535.67;509.80;;;7.20;99.90;;;;;;4943865;29;20467;-81
2022/05/02 03:49:40;;;;;;;560.90;534.20;;;7.10;99.90;;;;;;4949222;29;20475;-83
2022/05/02 03:52:07;;;;;;;599.73;569.10;;;7.20;99.90;;;;;;4956346;29;20459;-83
2022/05/02 03:54:36;;;;;;;598.83;568.23;;;7.30;99.90;;;;;;4946144;28;20456;-84
2022/05/02 03:57:03;;;;;;;597.83;567.00;;;7.30;99.90;;;;;;4945283;29;20452;-83
2022/05/02 03:59:30;;;;;;;585.93;555.40;;;7.30;99.90;;;;;;4940066;29;20484;-83
2022/05/02 04:01:57;;;;;;;555.90;528.13;;;7.20;99.90;;;;;;4938036;29;20463;-82
2022/05/02 04:04:23;;;;;;;526.33;499.90;;;7.30;99.90;;;;;;4944500;29;20816;-83
2022/05/02 04:06:50;;;;;;;521.60;496.20;;;7.30;99.90;;;;;;4951202;29;20460;-83
2022/05/02 04:09:17;;;;;;;562.93;534.13;;;7.30;99.90;;;;;;4936719;29;20492;-83
2022/05/02 04:11:46;;;;;;;541.40;513.93;;;7.40;99.90;;;;;;4955706;29;20448;-82
2022/05/02 04:14:12;;;;;;;526.43;500.33;;;7.40;99.90;;;;;;4949759;28;20842;-82
2022/05/02 04:16:39;;;;;;;538.10;510.63;;;7.30;99.90;;;;;;4944972;29;20459;-82
2022/05/02 04:19:06;;;;;;;559.57;531.47;;;7.40;99.90;;;;;;4927611;29;20456;-83
2022/05/02 04:21:32;;;;;;;624.67;591.87;;;7.40;99.90;;;;;;4954965;28;20460;-83
2022/05/02 04:23:59;;;;;;;550.47;522.67;;;7.30;99.90;;;;;;4937123;29;20460;-83
2022/05/02 04:26:26;;;;;;;491.00;466.90;;;7.40;99.90;;;;;;4953034;29;21004;-83
2022/05/02 04:28:54;;;;;;;541.60;512.77;;;7.50;99.90;;;;;;4955484;29;20541;-84
2022/05/02 04:31:21;;;;;;;557.90;528.33;;;7.50;99.90;;;;;;4942020;29;20460;-84
2022/05/02 04:33:47;;;;;;;479.30;455.53;;;7.50;99.90;;;;;;4952285;29;20464;-82
2022/05/02 04:36:14;;;;;;;485.17;460.53;;;7.60;99.90;;;;;;4950967;29;20457;-82
2022/05/02 04:38:41;;;;;;;418.27;398.60;;;7.50;99.90;;;;;;4945078;29;20448;-83
2022/05/02 04:41:10;;;;;;;407.63;387.93;;;7.70;99.90;;;;;;4953235;29;20477;-83
2022/05/02 04:43:38;;;;;;;443.33;422.07;;;7.60;99.90;;;;;;4940029;28;20461;-83
2022/05/02 04:46:06;;;;;;;479.73;454.93;;;7.70;99.90;;;;;;4963434;28;20479;-83
2022/05/02 04:48:33;;;;;;;396.53;378.17;;;7.80;99.90;;;;;;4957392;29;20816;-83
2022/05/02 04:50:59;;;;;;;356.57;339.50;;;7.70;99.90;;;;;;4944425;29;20480;-83
2022/05/02 04:53:26;;;;;;;382.50;364.50;;;7.80;99.90;;;;;;4956567;29;20456;-83
2022/05/02 04:55:53;;;;;;;309.83;296.33;;;7.90;99.90;;;;;;4963691;28;20455;-83
2022/05/02 04:58:19;;;;;;;329.47;314.40;;;8.10;99.90;;;;;;4960584;28;20987;-82
2022/05/02 05:00:47;;;;;;;264.80;253.10;;;8.20;99.90;;;;;;4944792;29;20495;-83
2022/05/02 05:03:15;;;;;;;275.80;264.20;;;8.20;99.90;;;;;;4955665;28;20910;-82
2022/05/02 05:05:42;;;;;;;177.90;169.67;;;8.30;99.90;;;;;;4956763;29;20471;-83
2022/05/02 05:08:08;;;;;;;176.00;167.90;;;8.40;99.90;;;;;;4963339;29;21008;-84
2022/05/02 05:10:42;;;;;;;163.70;155.30;;;8.50;99.90;;;;;;4949337;29;20849;-83
2022/05/02 05:13:13;;;;;;;132.27;125.47;;;8.50;99.80;;;;;;4949666;29;20507;-82
2022/05/02 05:16:21;;;;;;;158.97;151.17;;;8.60;99.10;;;;;;4943895;28;20493;-82
2022/05/02 05:19:03;;;;;;;111.73;105.63;;;8.80;99.90;;;;;;4958378;28;20939;-83
2022/05/02 05:21:41;;;;;;;118.30;111.70;;;8.80;97.60;;;;;;4948847;29;20456;-83
2022/05/02 05:24:48;;;;;;;73.53;68.60;;;8.90;97.60;;;;;;4949905;29;20458;-82
2022/05/02 05:27:30;;;;;;;63.73;58.83;;;8.90;95.60;;;;;;4904368;29;20443;-83
2022/05/02 05:30:04;;;;;;;53.33;48.27;;;8.90;95.60;;;;;;4920915;29;20481;-83
2022/05/02 05:32:39;;;;;;;47.70;43.50;;;8.90;94.30;;;;;;4943043;29;20955;-83
2022/05/02 05:35:09;;;;;;;33.37;29.97;;;9.10;93.70;;;;;;4942126;29;20456;-83
2022/05/02 05:37:59;;;;;;;34.93;31.63;;;9.20;91.10;;;;;;4943429;29;20457;-83
2022/05/02 05:40:34;;;;;;;31.73;26.73;;;9.20;91.10;;;;;;4943099;29;20512;-83
2022/05/02 05:43:18;;;;;;;32.23;27.10;;;9.20;88.70;;;;;;4957935;28;20451;-84
2022/05/02 05:46:11;;;;;;;28.97;25.73;;;9.20;88.40;;;;;;4961880;29;20479;-83
2022/05/02 05:48:47;;;;;;;29.10;24.97;;;9.20;90.20;;;;;;4923963;29;20842;-84
2022/05/02 05:51:34;;;;;;;33.53;23.50;;;9.20;86.80;;;;;;4930531;29;20479;-83
2022/05/02 05:54:25;;;;;;;31.33;24.70;;;9.30;84.70;;;;;;4962305;29;20455;-83
2022/05/02 05:57:02;;;;;;;33.53;28.97;;;9.10;86.70;;;;;;4943331;28;20457;-82
2022/05/02 05:59:38;;;;;;;31.47;24.63;;;9.30;87.10;;;;;;4940064;29;20480;-83
2022/05/02 06:02:07;;;;;;;31.77;27.60;;;9.40;84.10;;;;;;4954628;29;20949;-82
2022/05/02 06:04:34;;;;;;;35.00;29.97;;;9.50;85.70;;;;;;4952539;28;20851;-83
2022/05/02 06:07:03;;;;;;;35.70;27.90;;;9.40;85.80;;;;;;4954478;28;20476;-81
2022/05/02 06:09:31;;;;;;;29.73;24.70;;;9.40;83.30;;;;;;4954260;29;20516;-83
2022/05/02 06:11:59;;;;;;;37.30;27.63;;;9.70;82.60;;;;;;4953226;29;20452;-81
2022/05/02 06:14:29;;;;;;;29.20;25.47;;;9.70;83.10;;;;;;4948472;29;20456;-82
2022/05/02 06:19:45;;;;;;;29.13;23.50;;;9.90;80.10;;;;;;4942709;29;20492;-83
2022/05/02 06:22:13;;;;;;;38.13;27.80;;;10.00;78.30;;;;;;4948694;29;21006;-80
2022/05/02 06:24:46;;;;;;;29.57;25.90;;;10.10;80.90;;;;;;4941952;29;20480;-82
2022/05/02 06:27:14;;;;;;;32.50;25.47;;;10.20;77.10;;;;;;4948887;29;20445;-82
2022/05/02 06:29:42;;;;;;;43.30;25.00;;;10.50;76.30;;;;;;4955392;29;20479;-82
2022/05/02 06:32:11;;;;;;;28.50;22.57;;;10.50;74.00;;;;;;4957363;29;20463;-82
2022/05/02 06:34:39;;;;;;;39.53;23.37;;;10.60;71.40;;;;;;4955685;29;20504;-83
2022/05/02 06:37:31;;;;;;;26.67;22.80;;;10.70;71.40;;;;;;4958959;29;20448;-82
2022/05/02 06:40:05;;;;;;;26.03;20.90;;;11.00;68.80;;;;;;4943181;29;20510;-82
2022/05/02 06:42:38;;;;;;;31.10;24.13;;;10.90;67.00;;;;;;4947624;29;20452;-82
2022/05/02 06:45:21;;;;;;;28.80;23.20;;;11.00;70.00;;;;;;4938032;29;20449;-83
2022/05/02 06:48:25;;;;;;;28.20;20.70;;;11.20;66.30;;;;;;4947355;29;20464;-83
2022/05/02 06:50:58;;;;;;;24.00;19.33;;;11.10;64.40;;;;;;4950605;29;20472;-82
2022/05/02 06:53:56;;;;;;;25.80;20.80;;;11.30;63.50;;;;;;4951549;29;20456;-82
2022/05/02 06:56:36;;;;;;;27.13;21.43;;;11.30;64.70;;;;;;4933825;29;20446;-82
2022/05/02 06:59:07;;;;;;;29.43;23.40;;;11.50;62.30;;;;;;4955716;29;20459;-82
2022/05/02 07:01:45;;;;;;;30.93;25.47;;;11.70;60.50;;;;;;4955020;29;20464;-84
2022/05/02 07:04:19;;;;;;;30.23;24.73;;;11.80;59.20;;;;;;4959870;29;20512;-83
2022/05/02 07:07:02;;;;;;;31.80;24.80;;;11.90;59.00;;;;;;4966695;28;20472;-83
2022/05/02 07:09:41;;;;;;;29.50;22.93;;;11.90;57.30;;;;;;4959513;29;20487;-83
2022/05/02 07:12:16;;;;;;;27.50;21.57;;;12.00;54.40;;;;;;4947279;29;20445;-82
2022/05/02 07:15:02;;;;;;;28.23;22.70;;;12.10;54.50;;;;;;4961271;29;20451;-85
2022/05/02 07:17:45;;;;;;;27.80;22.33;;;12.30;53.00;;;;;;4959297;29;20882;-84
2022/05/02 07:20:18;;;;;;;29.47;23.33;;;12.60;53.40;;;;;;4950514;29;20540;-83
2022/05/02 07:22:57;;;;;;;25.00;21.57;;;12.60;52.00;;;;;;4956352;29;20452;-83
2022/05/02 07:25:26;;;;;;;24.47;21.13;;;12.90;53.50;;;;;;4955785;29;20476;-83
2022/05/02 07:28:10;;;;;;;29.83;24.10;;;13.30;49.00;;;;;;4966494;29;20453;-85
2022/05/02 07:30:37;;;;;;;31.00;20.97;;;13.40;47.10;;;;;;4956550;29;20476;-84
2022/05/02 07:33:04;;;;;;;29.10;21.33;;;13.30;48.30;;;;;;4962126;29;20453;-84
2022/05/02 07:35:32;;;;;;;24.40;19.27;;;13.20;46.90;;;;;;4954440;29;20440;-83
2022/05/02 07:37:59;;;;;;;27.10;21.23;;;13.20;47.40;;;;;;4958341;29;20460;-83
2022/05/02 07:40:29;;;;;;;27.63;20.23;;;13.50;43.50;;;;;;4955504;29;20503;-84
2022/05/02 07:42:57;;;;;;;27.93;20.87;;;13.30;44.20;;;;;;4958821;29;20452;-84
2022/05/02 07:45:27;;;;;;;23.77;18.40;;;13.50;47.10;;;;;;4960424;29;20803;-84
2022/05/02 07:47:55;;;;;;;29.50;20.80;;;13.50;43.20;;;;;;4954422;29;20960;-83
2022/05/02 07:50:22;;;;;;;24.17;20.57;;;13.80;41.50;;;;;;4946682;29;20501;-84
2022/05/02 07:52:51;;;;;;;23.40;18.30;;;13.90;42.90;;;;;;4948925;29;20544;-84
2022/05/02 07:55:22;;;;;;;25.50;20.10;;;14.10;41.10;;;;;;4948725;29;20460;-86
2022/05/02 07:57:51;;;;;;;23.63;19.33;;;14.10;40.60;;;;;;4952399;29;20452;-86
2022/05/02 08:00:19;;;;;;;22.90;18.73;;;13.90;39.80;;;;;;4943346;29;20481;-85
2022/05/02 08:02:47;;;;;;;25.43;20.73;;;14.00;38.70;;;;;;4950303;29;20460;-84
2022/05/02 08:05:21;;;;;;;25.23;19.50;;;14.40;37.80;;;;;;4958709;29;20456;-84
2022/05/02 08:07:51;;;;;;;25.70;18.20;;;14.60;36.60;;;;;;4955480;29;20442;-85
2022/05/02 08:10:45;;;;;;;21.50;17.00;;;15.00;35.30;;;;;;4953979;29;20478;-86
2022/05/02 08:13:37;;;;;;;25.30;16.97;;;14.80;34.20;;;;;;4958211;29;20462;-84
2022/05/02 08:16:05;;;;;;;19.87;15.97;;;15.20;34.80;;;;;;4969462;29;20475;-85
2022/05/02 08:18:48;;;;;;;22.10;16.63;;;15.20;30.80;;;;;;4959473;29;20483;-84
2022/05/02 08:21:19;;;;;;;20.83;15.93;;;15.90;31.40;;;;;;4948195;29;20485;-85
2022/05/02 08:29:50;;;;;;;20.70;16.80;;;15.90;26.90;;;;;;4963507;29;20489;-85
2022/05/02 08:32:23;;;;;;;16.80;15.00;;;16.10;27.50;;;;;;4952231;29;20911;-85
2022/05/02 08:35:01;;;;;;;21.93;15.53;;;17.00;25.90;;;;;;4948496;29;20462;-85
2022/05/02 08:37:45;;;;;;;17.23;12.67;;;16.70;24.60;;;;;;4948886;29;20449;-85
2022/05/02 08:40:22;;;;;;;19.53;15.50;;;16.20;25.00;;;;;;4947390;29;20490;-85
2022/05/02 08:43:39;;;;;;;16.90;11.77;;;16.50;24.90;;;;;;4966266;29;20455;-85
2022/05/02 08:46:42;;;;;;;17.27;14.37;;;16.00;24.70;;;;;;4961797;29;20483;-86
2022/05/02 08:49:51;;;;;;;19.43;13.90;;;16.60;25.20;;;;;;4949274;29;20461;-87
2022/05/02 08:52:48;;;;;;;21.53;12.80;;;17.00;25.10;;;;;;4924333;29;20471;-88
2022/05/02 08:55:40;;;;;;;19.70;16.17;;;16.80;25.10;;;;;;4929647;29;20462;-84
2022/05/02 08:58:37;;;;;;;20.60;13.90;;;17.20;24.20;;;;;;4909632;29;20207;-83
2022/05/02 09:01:24;;;;;;;20.10;13.03;;;17.00;23.40;;;;;;4932887;29;20491;-84
2022/05/02 09:04:39;;;;;;;20.80;15.80;;;16.80;22.20;;;;;;4930913;29;20458;-83
2022/05/02 09:07:32;;;;;;;14.80;13.30;;;17.20;24.00;;;;;;4918746;29;20474;-85
2022/05/02 09:10:07;;;;;;;13.10;11.17;;;17.80;22.90;;;;;;4929092;29;20479;-83
2022/05/02 09:13:17;;;;;;;13.33;8.43;;;17.50;18.30;;;;;;4932368;29;20470;-79
2022/05/02 09:16:18;;;;;;;14.83;12.17;;;17.60;18.70;;;;;;4932973;29;20965;-83
2022/05/02 09:19:21;;;;;;;19.00;11.23;;;17.50;17.90;;;;;;4901239;29;20504;-84
2022/05/02 09:22:26;;;;;;;15.60;10.90;;;17.50;20.50;;;;;;4931272;29;20469;-83
2022/05/02 09:25:04;;;;;;;15.20;7.43;;;17.50;19.00;;;;;;4927940;29;20453;-83
2022/05/02 09:27:56;;;;;;;15.10;9.87;;;17.60;19.60;;;;;;4931106;29;20458;-83
2022/05/02 09:30:44;;;;;;;15.70;10.20;;;17.70;20.20;;;;;;4929104;29;20484;-83
2022/05/02 09:33:37;;;;;;;15.50;9.97;;;17.90;16.80;;;;;;4934190;29;20637;-82
2022/05/02 09:36:15;;;;;;;17.07;12.10;;;18.40;18.60;;;;;;4949739;29;20482;-83
2022/05/02 09:38:51;;;;;;;14.50;10.80;;;18.50;17.60;;;;;;4951846;29;20526;-81
2022/05/02 09:41:47;;;;;;;13.53;12.10;;;18.30;16.50;;;;;;4950515;29;20560;-83
2022/05/02 09:50:21;;;;;;;14.23;9.37;;;19.20;13.60;;;;;;4944080;29;20482;-83
2022/05/02 09:53:08;;;;;;;16.93;11.23;;;19.60;11.90;;;;;;4952952;29;20532;-83
2022/05/02 09:58:35;;;;;;;15.87;11.27;;;19.30;12.90;;;;;;4951390;29;20474;-83
2022/05/02 10:01:07;;;;;;;16.53;10.57;;;19.40;11.80;;;;;;4952320;29;20475;-83
2022/05/02 10:03:40;;;;;;;12.37;9.93;;;19.70;12.00;;;;;;4951468;29;20455;-83
2022/05/02 10:06:10;;;;;;;14.17;11.30;;;19.70;10.30;;;;;;4951094;29;20451;-82
2022/05/02 10:08:50;;;;;;;13.40;11.00;;;20.80;5.10;;;;;;4951867;29;20459;-83
2022/05/02 10:11:50;;;;;;;18.47;12.43;;;20.30;7.70;;;;;;4951032;29;20543;-84
2022/05/02 10:14:50;;;;;;;25.57;12.80;;;20.40;10.10;;;;;;4950926;29;20847;-83
2022/05/02 10:17:36;;;;;;;18.77;14.13;;;21.00;5.30;;;;;;4951039;29;20551;-82
2022/05/02 10:20:08;;;;;;;16.17;13.00;;;20.70;5.00;;;;;;4950546;29;20485;-83
2022/05/02 10:22:47;;;;;;;15.33;12.73;;;20.90;4.30;;;;;;4952116;29;20448;-84
2022/05/02 10:25:21;;;;;;;14.13;11.40;;;20.40;8.10;;;;;;4950703;29;20456;-84
2022/05/02 10:28:14;;;;;;;16.07;12.93;;;20.60;5.00;;;;;;4948968;29;20457;-83
2022/05/02 10:30:54;;;;;;;17.60;12.30;;;21.40;4.50;;;;;;4952103;29;20491;-84
2022/05/02 10:33:31;;;;;;;12.80;10.67;;;21.60;1.50;;;;;;4952257;29;20472;-84
2022/05/02 10:36:00;;;;;;;13.90;12.40;;;21.20;5.00;;;;;;4949247;29;20448;-84
2022/05/02 10:38:29;;;;;;;16.60;11.70;;;22.00;1.00;;;;;;4950718;29;20496;-84
2022/05/02 10:41:07;;;;;;;16.67;12.37;;;21.50;1.00;;;;;;4951819;29;20472;-84
2022/05/02 10:43:37;;;;;;;17.90;13.27;;;21.10;1.60;;;;;;4951143;29;20456;-84
2022/05/02 10:46:03;;;;;;;21.03;12.30;;;21.70;4.00;;;;;;4951913;29;20467;-85
2022/05/02 10:48:42;;;;;;;16.83;13.40;;;22.30;1.00;;;;;;4950864;29;20465;-84
2022/05/02 10:51:13;;;;;;;14.37;12.87;;;22.50;2.10;;;;;;4951748;29;20472;-84
2022/05/02 10:54:13;;;;;;;17.57;13.67;;;23.30;1.00;;;;;;4951608;29;20465;-83
2022/05/02 10:56:45;;;;;;;14.20;12.20;;;22.50;1.00;;;;;;4952507;29;20480;-84
2022/05/02 10:59:14;;;;;;;15.00;12.47;;;21.80;1.20;;;;;;4950734;29;20456;-84
2022/05/02 11:02:15;;;;;;;14.50;12.53;;;21.80;1.00;;;;;;4952347;29;20472;-84
2022/05/02 11:05:00;;;;;;;14.60;12.40;;;21.50;1.00;;;;;;4951095;29;20447;-84
2022/05/02 11:07:30;;;;;;;18.60;12.63;;;21.50;1.00;;;;;;4952480;29;20495;-84
2022/05/02 11:10:05;;;;;;;16.50;13.47;;;21.70;1.00;;;;;;4951608;29;20471;-84
2022/05/02 11:12:38;;;;;;;17.10;12.67;;;21.60;1.00;;;;;;4951202;29;20484;-84
2022/05/02 11:15:06;;;;;;;22.03;12.77;;;22.80;1.00;;;;;;4951293;29;20482;-84
2022/05/02 11:17:49;;;;;;;15.33;11.27;;;22.20;1.00;;;;;;4951423;29;20483;-84
2022/05/02 11:23:35;;;;;;;15.37;12.73;;;22.90;1.00;;;;;;4952037;29;20452;-84
2022/05/02 11:26:11;;;;;;;15.77;12.10;;;22.90;1.00;;;;;;4948371;29;20476;-84
2022/05/02 11:29:04;;;;;;;11.20;7.40;;;22.30;1.00;;;;;;4951237;29;20464;-84
2022/05/02 11:31:36;;;;;;;17.33;12.77;;;22.20;1.00;;;;;;4952527;29;20556;-84
2022/05/02 11:34:07;;;;;;;14.67;11.17;;;22.20;1.00;;;;;;4951129;29;20427;-84
2022/05/02 11:36:41;;;;;;;16.13;11.77;;;22.50;1.00;;;;;;4951335;29;20964;-85
2022/05/02 11:39:10;;;;;;;13.90;11.63;;;22.70;1.00;;;;;;4950889;29;20456;-85
2022/05/02 11:41:43;;;;;;;17.23;8.00;;;22.30;1.00;;;;;;4949364;29;20431;-84
2022/05/02 11:44:13;;;;;;;21.63;12.33;;;22.50;1.00;;;;;;4950161;29;20449;-84
2022/05/02 11:47:05;;;;;;;15.33;11.83;;;22.50;1.00;;;;;;4950667;29;20445;-84
2022/05/02 11:49:45;;;;;;;13.93;11.07;;;22.50;1.00;;;;;;4949504;29;20469;-84
2022/05/02 11:52:15;;;;;;;18.07;12.70;;;23.10;1.00;;;;;;4949440;29;20456;-84
2022/05/02 11:54:42;;;;;;;16.73;12.07;;;23.90;1.00;;;;;;4948800;29;20475;-84
2022/05/02 11:57:22;;;;;;;14.60;11.30;;;24.10;1.00;;;;;;4949225;29;20548;-84
2022/05/02 12:00:00;;;;;;;13.13;10.70;;;23.20;1.00;;;;;;4950605;29;20287;-84
2022/05/02 12:03:01;;;;;;;13.23;10.98;;;23.00;1.00;;;;;;4945171;29;20468;-88
2022/05/02 12:05:48;;;;;;;13.57;10.60;;;23.30;1.00;;;;;;4938104;29;20202;-87
2022/05/02 12:08:25;;;;;;;13.27;10.90;;;24.00;1.00;;;;;;4935994;29;20491;-86
2022/05/02 12:11:05;;;;;;;13.87;10.90;;;24.10;1.00;;;;;;4936550;29;21056;-87
2022/05/02 12:13:35;;;;;;;17.40;12.00;;;23.40;1.00;;;;;;4938641;29;20456;-89
2022/05/02 12:16:05;;;;;;;22.50;12.50;;;22.90;1.00;;;;;;4940702;29;20461;-85
2022/05/02 12:18:44;;;;;;;13.03;10.87;;;23.40;1.00;;;;;;4949490;29;20455;-87
2022/05/02 12:21:16;;;;;;;14.70;12.03;;;24.90;1.00;;;;;;4950481;29;20478;-87
2022/05/02 12:23:44;;;;;;;14.70;11.40;;;25.80;1.00;;;;;;4950673;29;20449;-85
2022/05/02 12:26:18;;;;;;;17.70;12.57;;;25.10;1.00;;;;;;4950231;29;20448;-87
2022/05/02 12:28:48;;;;;;;14.10;11.77;;;24.40;1.00;;;;;;4949977;29;20525;-86
2022/05/02 12:31:20;;;;;;;17.20;11.20;;;24.10;1.00;;;;;;4951880;29;20469;-87
2022/05/02 12:33:51;;;;;;;13.67;10.43;;;23.50;1.00;;;;;;4949257;29;20453;-88
2022/05/02 12:36:19;;;;;;;17.87;10.17;;;23.70;1.00;;;;;;4949490;29;20457;-85
2022/05/02 12:38:54;;;;;;;20.60;11.17;;;23.30;1.00;;;;;;4949953;29;20472;-86
2022/05/02 12:41:25;;;;;;;16.30;11.37;;;22.70;1.00;;;;;;4950546;29;20966;-86
2022/05/02 12:44:03;;;;;;;13.10;11.03;;;22.60;1.00;;;;;;4950645;29;20457;-85
2022/05/02 12:46:39;;;;;;;13.93;11.77;;;22.70;1.00;;;;;;4950952;29;20732;-86
2022/05/02 12:49:12;;;;;;;13.10;11.30;;;23.20;1.00;;;;;;4950168;29;20533;-87
2022/05/02 12:51:40;;;;;;;13.87;12.37;;;23.70;1.00;;;;;;4950903;29;20457;-88
2022/05/02 12:54:14;;;;;;;13.80;11.83;;;23.30;1.00;;;;;;4948045;29;20457;-85
2022/05/02 13:02:38;;;;;;;16.17;11.80;;;23.30;1.00;;;;;;4952482;29;20453;-87
2022/05/02 13:05:08;;;;;;;16.33;12.40;;;23.60;1.00;;;;;;4952501;29;20456;-88
2022/05/02 13:07:44;;;;;;;13.83;11.50;;;23.20;1.00;;;;;;4957555;29;20540;-88
2022/05/02 13:10:20;;;;;;;12.07;10.77;;;24.40;1.00;;;;;;4954074;29;20488;-87
2022/05/02 13:13:03;;;;;;;14.07;9.87;;;24.60;1.00;;;;;;4957809;28;20452;-87
2022/05/02 13:15:31;;;;;;;19.47;10.83;;;23.40;1.00;;;;;;4962341;28;20465;-87
2022/05/02 13:18:01;;;;;;;17.30;12.07;;;23.00;1.00;;;;;;4961733;29;20445;-87
2022/05/02 13:20:31;;;;;;;13.83;11.47;;;22.50;1.00;;;;;;4961704;28;20490;-86
2022/05/02 13:23:00;;;;;;;16.00;12.70;;;21.60;1.00;;;;;;4960946;28;20459;-85
2022/05/02 13:25:54;;;;;;;16.73;12.67;;;21.10;1.00;;;;;;4954273;29;20457;-86
2022/05/02 13:28:25;;;;;;;16.63;11.50;;;21.80;1.00;;;;;;4954648;29;20476;-86
2022/05/02 13:30:55;;;;;;;18.60;10.53;;;22.90;1.00;;;;;;4955380;29;20474;-87